createdAt,value
2016-04-14T00:00:48.595Z,0
2016-04-14T00:01:48.519Z,0
2016-04-14T00:02:48.538Z,0
2016-04-14T00:03:48.571Z,0
2016-04-14T00:04:48.574Z,0
2016-04-14T00:05:48.546Z,0
2016-04-14T00:06:48.549Z,0
2016-04-14T00:07:48.551Z,0
2016-04-14T00:08:48.538Z,0
2016-04-14T00:09:48.570Z,0
2016-04-14T00:10:48.557Z,0
2016-04-14T00:11:48.560Z,0
2016-04-14T00:12:48.547Z,0
2016-04-14T00:13:48.534Z,0
2016-04-14T00:14:48.537Z,0
2016-04-14T00:15:48.555Z,0
2016-04-14T00:16:48.542Z,0
2016-04-14T00:17:48.529Z,0
2016-04-14T00:18:48.548Z,0
2016-04-14T00:19:48.535Z,0
2016-04-14T00:20:48.537Z,0
2016-04-14T00:21:48.540Z,0
2016-04-14T00:22:48.527Z,0
2016-04-14T00:23:48.561Z,0
2016-04-14T00:24:48.548Z,0
2016-04-14T00:25:48.550Z,0
2016-04-14T00:26:48.585Z,0
2016-04-14T00:27:48.556Z,0
2016-04-14T00:28:48.542Z,0
2016-04-14T00:29:48.546Z,0
2016-04-14T00:30:48.533Z,0
2016-04-14T00:31:48.535Z,0
2016-04-14T00:32:48.382Z,0
2016-04-14T00:33:48.603Z,0
2016-04-14T00:34:48.544Z,0
2016-04-14T00:35:48.578Z,0
2016-04-14T00:36:48.430Z,0
2016-04-14T00:37:48.230Z,0
2016-04-14T00:38:48.561Z,0
2016-04-14T00:39:48.517Z,0
2016-04-14T00:40:48.535Z,0
2016-04-14T00:41:48.554Z,0
2016-04-14T00:42:48.525Z,0
2016-04-14T00:43:48.528Z,0
2016-04-14T00:44:48.562Z,0
2016-04-14T00:45:48.534Z,0
2016-04-14T00:46:48.521Z,0
2016-04-14T00:47:48.742Z,0
2016-04-14T00:48:48.573Z,0
2016-04-14T00:49:48.545Z,0
2016-04-14T00:50:48.515Z,0
2016-04-14T00:51:48.533Z,0
2016-04-14T00:52:48.537Z,0
2016-04-14T00:53:48.539Z,0
2016-04-14T00:54:48.526Z,0
2016-04-14T00:55:48.528Z,0
2016-04-14T00:56:48.500Z,0
2016-04-14T00:57:48.519Z,0
2016-04-14T00:58:48.521Z,0
2016-04-14T00:59:48.539Z,0
2016-04-14T01:00:48.511Z,0
2016-04-14T01:01:48.529Z,0
2016-04-14T01:02:48.500Z,0
2016-04-14T01:03:51.535Z,0
2016-04-14T01:04:48.521Z,0
2016-04-14T01:05:48.509Z,0
2016-04-14T01:06:48.527Z,0
2016-04-14T01:07:51.514Z,0
2016-04-14T01:08:48.516Z,0
2016-04-14T01:09:48.519Z,0
2016-04-14T01:10:48.522Z,0
2016-04-14T01:11:48.524Z,0
2016-04-14T01:12:48.527Z,0
2016-04-14T01:13:48.515Z,0
2016-04-14T01:14:48.517Z,0
2016-04-14T01:15:48.535Z,0
2016-04-14T01:16:48.538Z,0
2016-04-14T01:17:48.587Z,0
2016-04-14T01:18:48.788Z,0
2016-04-14T01:19:48.538Z,0
2016-04-14T01:20:48.509Z,0
2016-04-14T01:21:48.512Z,0
2016-04-14T01:22:48.358Z,0
2016-04-14T01:23:48.502Z,0
2016-04-14T01:24:48.520Z,0
2016-04-14T01:25:48.522Z,0
2016-04-14T01:26:48.510Z,0
2016-04-14T01:27:48.372Z,0
2016-04-14T01:28:48.343Z,0
2016-04-14T01:29:48.518Z,0
2016-04-14T01:30:48.552Z,0
2016-04-14T01:31:48.523Z,0
2016-04-14T01:32:48.464Z,0
2016-04-14T01:33:48.544Z,0
2016-04-14T01:34:48.485Z,0
2016-04-14T01:35:51.537Z,0
2016-04-14T01:36:48.521Z,0
2016-04-14T01:37:48.493Z,0
2016-04-14T01:38:48.479Z,0
2016-04-14T01:39:48.545Z,0
2016-04-14T01:40:48.485Z,0
2016-04-14T01:41:48.503Z,0
2016-04-14T01:42:48.490Z,0
2016-04-14T01:43:48.493Z,0
2016-04-14T01:44:48.559Z,0
2016-04-14T01:45:48.483Z,0
2016-04-14T01:46:48.517Z,0
2016-04-14T01:47:48.534Z,0
2016-04-14T01:48:48.537Z,0
2016-04-14T01:49:48.478Z,0
2016-04-14T01:50:48.497Z,0
2016-04-14T01:51:48.499Z,0
2016-04-14T01:52:48.502Z,0
2016-04-14T01:53:48.505Z,0
2016-04-14T01:54:48.475Z,0
2016-04-14T01:55:48.713Z,0
2016-04-14T01:56:48.480Z,0
2016-04-14T01:57:51.486Z,0
2016-04-14T01:58:48.486Z,0
2016-04-14T01:59:48.489Z,0
2016-04-14T02:00:48.524Z,0
2016-04-14T02:01:48.479Z,0
2016-04-14T02:02:48.497Z,0
2016-04-14T02:03:48.469Z,0
2016-04-14T02:04:48.487Z,0
2016-04-14T02:05:48.474Z,0
2016-04-14T02:06:48.460Z,0
2016-04-14T02:07:48.479Z,0
2016-04-14T02:08:48.498Z,0
2016-04-14T02:09:48.469Z,0
2016-04-14T02:10:48.534Z,0
2016-04-14T02:11:48.318Z,0
2016-04-14T02:12:48.461Z,0
2016-04-14T02:13:48.464Z,0
2016-04-14T02:14:48.467Z,0
2016-04-14T02:15:48.485Z,0
2016-04-14T02:16:48.488Z,0
2016-04-14T02:17:48.476Z,0
2016-04-14T02:18:48.478Z,0
2016-04-14T02:19:48.495Z,0
2016-04-14T02:20:48.484Z,0
2016-04-14T02:21:48.470Z,0
2016-04-14T02:22:48.504Z,0
2016-04-14T02:23:48.461Z,0
2016-04-14T02:24:48.447Z,0
2016-04-14T02:25:48.466Z,0
2016-04-14T02:26:48.436Z,0
2016-04-14T02:27:48.439Z,0
2016-04-14T02:28:48.473Z,0
2016-04-14T02:29:48.461Z,0
2016-04-14T02:30:48.432Z,0
2016-04-14T02:31:48.465Z,0
2016-04-14T02:32:48.438Z,0
2016-04-14T02:33:48.424Z,0
2016-04-14T02:34:48.443Z,0
2016-04-14T02:35:48.446Z,0
2016-04-14T02:36:48.479Z,0
2016-04-14T02:37:48.435Z,0
2016-04-14T02:38:48.469Z,0
2016-04-14T02:39:48.456Z,0
2016-04-14T02:40:48.459Z,0
2016-04-14T02:41:48.462Z,0
2016-04-14T02:42:48.448Z,0
2016-04-14T02:43:48.435Z,0
2016-04-14T02:44:48.407Z,0
2016-04-14T02:45:48.440Z,0
2016-04-14T02:46:48.443Z,0
2016-04-14T02:47:48.431Z,0
2016-04-14T02:48:48.417Z,0
2016-04-14T02:49:48.405Z,0
2016-04-14T02:50:48.423Z,0
2016-04-14T02:51:48.425Z,0
2016-04-14T02:52:48.429Z,0
2016-04-14T02:53:48.416Z,0
2016-04-14T02:54:48.419Z,0
2016-04-14T02:55:48.483Z,0
2016-04-14T02:56:48.408Z,0
2016-04-14T02:57:48.411Z,0
2016-04-14T02:58:48.429Z,0
2016-04-14T02:59:48.432Z,0
2016-04-14T03:00:48.388Z,0
2016-04-14T03:01:48.406Z,0
2016-04-14T03:02:48.377Z,0
2016-04-14T03:03:48.411Z,0
2016-04-14T03:04:48.413Z,0
2016-04-14T03:05:48.433Z,0
2016-04-14T03:06:48.388Z,0
2016-04-14T03:07:48.406Z,0
2016-04-14T03:08:48.394Z,0
2016-04-14T03:09:48.412Z,0
2016-04-14T03:10:48.446Z,0
2016-04-14T03:11:48.370Z,0
2016-04-14T03:12:48.357Z,0
2016-04-14T03:13:48.390Z,0
2016-04-14T03:14:48.379Z,0
2016-04-14T03:15:48.381Z,0
2016-04-14T03:16:48.367Z,0
2016-04-14T03:17:48.387Z,0
2016-04-14T03:18:48.373Z,0
2016-04-14T03:19:48.361Z,0
2016-04-14T03:20:48.348Z,0
2016-04-14T03:21:48.366Z,0
2016-04-14T03:22:48.337Z,0
2016-04-14T03:23:48.372Z,0
2016-04-14T03:24:48.358Z,0
2016-04-14T03:25:48.548Z,0
2016-04-14T03:26:48.348Z,0
2016-04-14T03:27:48.366Z,0
2016-04-14T03:28:48.354Z,0
2016-04-14T03:29:48.325Z,0
2016-04-14T03:30:48.359Z,0
2016-04-14T03:31:48.346Z,0
2016-04-14T03:32:48.317Z,0
2016-04-14T03:33:48.336Z,0
2016-04-14T03:34:48.338Z,0
2016-04-14T03:35:48.325Z,0
2016-04-14T03:36:48.327Z,0
2016-04-14T03:37:48.330Z,0
2016-04-14T03:38:48.318Z,0
2016-04-14T03:39:48.321Z,0
2016-04-14T03:40:48.526Z,0
2016-04-14T03:41:48.310Z,0
2016-04-14T03:42:48.329Z,0
2016-04-14T03:43:48.331Z,0
2016-04-14T03:44:48.318Z,0
2016-04-14T03:45:48.321Z,0
2016-04-14T03:46:48.292Z,0
2016-04-14T03:47:48.296Z,0
2016-04-14T03:48:48.282Z,0
2016-04-14T03:49:48.300Z,0
2016-04-14T03:50:48.288Z,0
2016-04-14T03:51:48.306Z,0
2016-04-14T03:52:48.293Z,0
2016-04-14T03:53:48.295Z,0
2016-04-14T03:54:48.298Z,0
2016-04-14T03:55:48.504Z,0
2016-04-14T03:56:48.304Z,0
2016-04-14T03:57:48.275Z,0
2016-04-14T03:58:48.293Z,0
2016-04-14T03:59:48.280Z,0
2016-04-14T04:00:48.267Z,0
2016-04-14T04:01:48.349Z,4
2016-04-14T04:02:48.272Z,4
2016-04-14T04:03:48.275Z,4
2016-04-14T04:04:48.107Z,4
2016-04-14T04:05:48.265Z,0
2016-04-14T04:06:48.283Z,0
2016-04-14T04:07:48.271Z,4
2016-04-14T04:08:48.288Z,4
2016-04-14T04:09:48.261Z,4
2016-04-14T04:10:48.341Z,4
2016-04-14T04:11:48.265Z,4
2016-04-14T04:12:48.410Z,4
2016-04-14T04:13:48.256Z,8
2016-04-14T04:14:48.274Z,8
2016-04-14T04:15:48.246Z,12
2016-04-14T04:16:48.248Z,12
2016-04-14T04:17:48.267Z,12
2016-04-14T04:18:48.254Z,16
2016-04-14T04:19:48.240Z,16
2016-04-14T04:20:48.259Z,20
2016-04-14T04:21:48.246Z,24
2016-04-14T04:22:48.249Z,24
2016-04-14T04:23:48.220Z,28
2016-04-14T04:24:48.254Z,32
2016-04-14T04:25:48.225Z,32
2016-04-14T04:26:48.259Z,36
2016-04-14T04:27:48.231Z,44
2016-04-14T04:28:48.234Z,44
2016-04-14T04:29:48.220Z,48
2016-04-14T04:30:48.222Z,56
2016-04-14T04:31:48.242Z,60
2016-04-14T04:32:48.228Z,64
2016-04-14T04:33:48.200Z,68
2016-04-14T04:34:48.234Z,72
2016-04-14T04:35:48.236Z,80
2016-04-14T04:36:48.208Z,84
2016-04-14T04:37:48.227Z,92
2016-04-14T04:38:48.229Z,96
2016-04-14T04:39:48.216Z,100
2016-04-14T04:40:48.234Z,112
2016-04-14T04:41:48.237Z,116
2016-04-14T04:42:48.068Z,120
2016-04-14T04:43:48.196Z,128
2016-04-14T04:44:48.198Z,136
2016-04-14T04:45:48.201Z,140
2016-04-14T04:46:48.220Z,148
2016-04-14T04:47:48.222Z,156
2016-04-14T04:48:48.178Z,164
2016-04-14T04:49:48.509Z,168
2016-04-14T04:50:48.198Z,180
2016-04-14T04:51:48.529Z,188
2016-04-14T04:52:48.204Z,196
2016-04-14T04:53:48.207Z,200
2016-04-14T04:54:48.225Z,208
2016-04-14T04:55:48.212Z,216
2016-04-14T04:56:48.184Z,228
2016-04-14T04:57:48.202Z,236
2016-04-14T04:58:48.189Z,244
2016-04-14T04:59:48.191Z,260
2016-04-14T05:00:48.178Z,272
2016-04-14T05:01:48.182Z,284
2016-04-14T05:02:48.216Z,296
2016-04-14T05:03:48.218Z,308
2016-04-14T05:04:48.175Z,320
2016-04-14T05:05:48.224Z,336
2016-04-14T05:06:48.727Z,356
2016-04-14T05:07:48.182Z,376
2016-04-14T05:08:48.216Z,404
2016-04-14T05:09:48.046Z,444
2016-04-14T05:10:48.175Z,476
2016-04-14T05:11:48.193Z,520
2016-04-14T05:12:48.180Z,580
2016-04-14T05:13:48.182Z,604
2016-04-14T05:14:48.229Z,656
2016-04-14T05:15:48.291Z,640
2016-04-14T05:16:48.323Z,608
2016-04-14T05:17:48.371Z,604
2016-04-14T05:18:48.408Z,624
2016-04-14T05:19:48.428Z,652
2016-04-14T05:20:47.696Z,696
2016-04-14T05:21:48.433Z,776
2016-04-14T05:22:48.437Z,848
2016-04-14T05:23:48.500Z,928
2016-04-14T05:24:48.679Z,1008
2016-04-14T05:25:48.500Z,1088
2016-04-14T05:26:48.508Z,1148
2016-04-14T05:27:48.501Z,1232
2016-04-14T05:28:48.509Z,1316
2016-04-14T05:29:48.530Z,1412
2016-04-14T05:30:48.503Z,1508
2016-04-14T05:31:48.493Z,1580
2016-04-14T05:32:48.482Z,1624
2016-04-14T05:33:48.502Z,1640
2016-04-14T05:34:48.489Z,1672
2016-04-14T05:35:48.509Z,1732
2016-04-14T05:36:48.544Z,1792
2016-04-14T05:37:48.500Z,1848
2016-04-14T05:38:48.519Z,1868
2016-04-14T05:39:48.475Z,1848
2016-04-14T05:40:48.494Z,1844
2016-04-14T05:41:48.543Z,1888
2016-04-14T05:42:48.499Z,1940
2016-04-14T05:43:48.485Z,1988
2016-04-14T05:44:48.504Z,2028
2016-04-14T05:45:48.491Z,2100
2016-04-14T05:46:48.494Z,2200
2016-04-14T05:47:48.497Z,2292
2016-04-14T05:48:48.484Z,2356
2016-04-14T05:49:48.487Z,2428
2016-04-14T05:50:48.474Z,2556
2016-04-14T05:51:48.507Z,2972
2016-04-14T05:52:48.463Z,4204
2016-04-14T05:53:48.498Z,5644
2016-04-14T05:54:48.484Z,5128
2016-04-14T05:55:48.487Z,3084
2016-04-14T05:56:48.458Z,3312
2016-04-14T05:57:48.508Z,2980
2016-04-14T05:58:48.464Z,2988
2016-04-14T05:59:48.498Z,2968
2016-04-14T06:00:48.501Z,2912
2016-04-14T06:01:48.503Z,2908
2016-04-14T06:02:48.490Z,2920
2016-04-14T06:03:48.478Z,2892
2016-04-14T06:04:48.511Z,2892
2016-04-14T06:05:48.498Z,2904
2016-04-14T06:06:48.500Z,2932
2016-04-14T06:07:48.503Z,2988
2016-04-14T06:08:48.474Z,3072
2016-04-14T06:09:48.508Z,3136
2016-04-14T06:10:48.480Z,3148
2016-04-14T06:11:48.498Z,3160
2016-04-14T06:12:48.501Z,3232
2016-04-14T06:13:48.472Z,3344
2016-04-14T06:14:48.490Z,3572
2016-04-14T06:15:51.493Z,3848
2016-04-14T06:16:48.512Z,4072
2016-04-14T06:17:48.499Z,4160
2016-04-14T06:18:48.517Z,4148
2016-04-14T06:19:48.505Z,4100
2016-04-14T06:20:48.523Z,4032
2016-04-14T06:21:48.479Z,4044
2016-04-14T06:22:48.496Z,4328
2016-04-14T06:23:48.484Z,4172
2016-04-14T06:24:48.690Z,4088
2016-04-14T06:25:48.474Z,4008
2016-04-14T06:26:48.477Z,3952
2016-04-14T06:27:48.323Z,3880
2016-04-14T06:28:48.513Z,3824
2016-04-14T06:29:48.485Z,3936
2016-04-14T06:30:48.487Z,3976
2016-04-14T06:31:48.506Z,4220
2016-04-14T06:32:48.508Z,4724
2016-04-14T06:33:48.511Z,6692
2016-04-14T06:34:48.513Z,6904
2016-04-14T06:35:48.360Z,6628
2016-04-14T06:36:48.488Z,8588
2016-04-14T06:37:48.490Z,8280
2016-04-14T06:38:48.524Z,7752
2016-04-14T06:39:48.511Z,8684
2016-04-14T06:40:48.514Z,7152
2016-04-14T06:41:48.533Z,6544
2016-04-14T06:42:48.519Z,7100
2016-04-14T06:43:48.522Z,6092
2016-04-14T06:44:48.540Z,6752
2016-04-14T06:45:48.887Z,6632
2016-04-14T06:46:48.530Z,9664
2016-04-14T06:47:48.533Z,7880
2016-04-14T06:48:48.848Z,9392
2016-04-14T06:49:48.585Z,9420
2016-04-14T06:50:48.384Z,6220
2016-04-14T06:51:48.543Z,7364
2016-04-14T06:52:48.546Z,9340
2016-04-14T06:53:48.565Z,6852
2016-04-14T06:54:48.568Z,7060
2016-04-14T06:55:48.554Z,9132
2016-04-14T06:56:48.557Z,11412
2016-04-14T06:57:48.576Z,10280
2016-04-14T06:58:48.579Z,8552
2016-04-14T06:59:48.597Z,10724
2016-04-14T07:00:48.568Z,10984
2016-04-14T07:01:48.602Z,6992
2016-04-14T07:02:48.574Z,7344
2016-04-14T07:03:48.576Z,6348
2016-04-14T07:04:48.596Z,6020
2016-04-14T07:05:48.629Z,5808
2016-04-14T07:06:48.612Z,5660
2016-04-14T07:07:48.615Z,5608
2016-04-14T07:08:48.611Z,5440
2016-04-14T07:09:48.317Z,5392
2016-04-14T07:10:48.636Z,5784
2016-04-14T07:11:48.547Z,7192
2016-04-14T07:12:48.816Z,7520
2016-04-14T07:13:48.325Z,9492
2016-04-14T07:14:48.641Z,10652
2016-04-14T07:15:48.643Z,9348
2016-04-14T07:16:48.625Z,10332
2016-04-14T07:17:49.349Z,9908
2016-04-14T07:18:48.647Z,9496
2016-04-14T07:19:48.650Z,8720
2016-04-14T07:20:48.669Z,6612
2016-04-14T07:21:48.655Z,6852
2016-04-14T07:22:48.643Z,7408
2016-04-14T07:23:48.520Z,7212
2016-04-14T07:24:48.679Z,7144
2016-04-14T07:25:48.682Z,6956
2016-04-14T07:26:48.981Z,7016
2016-04-14T07:27:48.671Z,7044
2016-04-14T07:28:48.673Z,6952
2016-04-14T07:29:48.692Z,6916
2016-04-14T07:30:48.695Z,6296
2016-04-14T07:31:48.682Z,6332
2016-04-14T07:32:48.684Z,8436
2016-04-14T07:33:48.672Z,9256
2016-04-14T07:34:48.706Z,9428
2016-04-14T07:35:48.692Z,9832
2016-04-14T07:36:48.742Z,9992
2016-04-14T07:37:48.698Z,10016
2016-04-14T07:38:48.717Z,9812
2016-04-14T07:39:48.783Z,9156
2016-04-14T07:40:48.567Z,9352
2016-04-14T07:41:48.788Z,9120
2016-04-14T07:42:48.744Z,8572
2016-04-14T07:43:48.761Z,8092
2016-04-14T07:44:48.764Z,8000
2016-04-14T07:45:48.720Z,8064
2016-04-14T07:46:48.738Z,8312
2016-04-14T07:47:48.772Z,9044
2016-04-14T07:48:48.759Z,9464
2016-04-14T07:49:51.762Z,9924
2016-04-14T07:50:48.749Z,10164
2016-04-14T07:51:48.751Z,8304
2016-04-14T07:52:48.771Z,6288
2016-04-14T07:53:48.757Z,9136
2016-04-14T07:54:48.760Z,10240
2016-04-14T07:55:48.794Z,10376
2016-04-14T07:56:49.249Z,10512
2016-04-14T07:57:48.799Z,10520
2016-04-14T07:58:48.801Z,10584
2016-04-14T07:59:48.851Z,9068
2016-04-14T08:00:48.806Z,7656
2016-04-14T08:01:48.825Z,11124
2016-04-14T08:02:48.828Z,10988
2016-04-14T08:03:48.831Z,11008
2016-04-14T08:04:48.818Z,11132
2016-04-14T08:05:48.836Z,11016
2016-04-14T08:06:48.823Z,11064
2016-04-14T08:07:48.873Z,10544
2016-04-14T08:08:48.716Z,10548
2016-04-14T08:09:48.868Z,11040
2016-04-14T08:10:48.871Z,12028
2016-04-14T08:11:49.234Z,12468
2016-04-14T08:12:48.876Z,12540
2016-04-14T08:13:48.879Z,12748
2016-04-14T08:14:48.898Z,12464
2016-04-14T08:15:48.884Z,12904
2016-04-14T08:16:48.903Z,12852
2016-04-14T08:17:48.906Z,13244
2016-04-14T08:18:48.909Z,13472
2016-04-14T08:19:48.927Z,13656
2016-04-14T08:20:48.977Z,13256
2016-04-14T08:21:48.963Z,13580
2016-04-14T08:22:48.950Z,12000
2016-04-14T08:23:48.953Z,11660
2016-04-14T08:24:48.955Z,10248
2016-04-14T08:25:48.974Z,10492
2016-04-14T08:26:49.070Z,10496
2016-04-14T08:27:49.010Z,11972
2016-04-14T08:28:48.998Z,10400
2016-04-14T08:29:49.032Z,10400
2016-04-14T08:30:49.004Z,10404
2016-04-14T08:31:48.865Z,10552
2016-04-14T08:32:49.040Z,10420
2016-04-14T08:33:49.058Z,10380
2016-04-14T08:34:49.060Z,10500
2016-04-14T08:35:49.079Z,10608
2016-04-14T08:36:49.042Z,11040
2016-04-14T08:37:49.061Z,11292
2016-04-14T08:38:49.064Z,11068
2016-04-14T08:39:49.114Z,10436
2016-04-14T08:40:49.117Z,12204
2016-04-14T08:41:48.994Z,10196
2016-04-14T08:42:49.090Z,10284
2016-04-14T08:43:49.093Z,11048
2016-04-14T08:44:49.142Z,9860
2016-04-14T08:45:49.114Z,10424
2016-04-14T08:46:49.116Z,11292
2016-04-14T08:47:49.119Z,11092
2016-04-14T08:48:49.138Z,10920
2016-04-14T08:49:49.140Z,11200
2016-04-14T08:50:48.814Z,10836
2016-04-14T08:51:49.160Z,10384
2016-04-14T08:52:49.148Z,10440
2016-04-14T08:53:49.151Z,10136
2016-04-14T08:54:49.138Z,10248
2016-04-14T08:55:49.141Z,9016
2016-04-14T08:56:49.252Z,9496
2016-04-14T08:57:49.146Z,8424
2016-04-14T08:58:49.179Z,7808
2016-04-14T08:59:49.167Z,7388
2016-04-14T09:00:49.232Z,7404
2016-04-14T09:01:49.173Z,7696
2016-04-14T09:02:49.176Z,8112
2016-04-14T09:03:49.179Z,8332
2016-04-14T09:04:49.212Z,8268
2016-04-14T09:05:49.215Z,8280
2016-04-14T09:06:49.171Z,8412
2016-04-14T09:07:49.220Z,8500
2016-04-14T09:08:49.223Z,8624
2016-04-14T09:09:49.209Z,8836
2016-04-14T09:10:49.243Z,8916
2016-04-14T09:11:49.355Z,8716
2016-04-14T09:12:49.248Z,8512
2016-04-14T09:13:49.205Z,8484
2016-04-14T09:14:49.238Z,8664
2016-04-14T09:15:49.132Z,8924
2016-04-14T09:16:49.259Z,9300
2016-04-14T09:17:49.231Z,9616
2016-04-14T09:18:49.234Z,9812
2016-04-14T09:19:49.236Z,9888
2016-04-14T09:20:49.255Z,9948
2016-04-14T09:21:49.257Z,9892
2016-04-14T09:22:49.260Z,9860
2016-04-14T09:23:49.293Z,9880
2016-04-14T09:24:49.249Z,9852
2016-04-14T09:25:49.283Z,9556
2016-04-14T09:26:49.286Z,9572
2016-04-14T09:27:49.257Z,9652
2016-04-14T09:28:49.308Z,9580
2016-04-14T09:29:49.279Z,9504
2016-04-14T09:30:49.266Z,9480
2016-04-14T09:31:49.299Z,9436
2016-04-14T09:32:49.271Z,9480
2016-04-14T09:33:49.305Z,9476
2016-04-14T09:34:49.292Z,9444
2016-04-14T09:35:49.310Z,9320
2016-04-14T09:36:49.298Z,9276
2016-04-14T09:37:49.348Z,9276
2016-04-14T09:38:49.304Z,9380
2016-04-14T09:39:49.321Z,9672
2016-04-14T09:40:49.293Z,10044
2016-04-14T09:41:49.311Z,10208
2016-04-14T09:42:49.158Z,10272
2016-04-14T09:43:49.347Z,10296
2016-04-14T09:44:49.334Z,10456
2016-04-14T09:45:49.322Z,10264
2016-04-14T09:46:49.339Z,10056
2016-04-14T09:47:49.358Z,10016
2016-04-14T09:48:49.361Z,9968
2016-04-14T09:49:49.364Z,9900
2016-04-14T09:50:49.366Z,10188
2016-04-14T09:51:49.369Z,9892
2016-04-14T09:52:49.372Z,9844
2016-04-14T09:53:49.343Z,10124
2016-04-14T09:54:49.361Z,10236
2016-04-14T09:55:49.379Z,10288
2016-04-14T09:56:49.491Z,10328
2016-04-14T09:57:49.401Z,10148
2016-04-14T09:58:49.497Z,9964
2016-04-14T09:59:49.421Z,9712
2016-04-14T10:00:49.393Z,9476
2016-04-14T10:01:49.396Z,9424
2016-04-14T10:02:49.399Z,9568
2016-04-14T10:03:49.417Z,9716
2016-04-14T10:04:49.420Z,9556
2016-04-14T10:05:49.438Z,10108
2016-04-14T10:06:49.409Z,9160
2016-04-14T10:07:49.444Z,8476
2016-04-14T10:08:49.446Z,8232
2016-04-14T10:09:49.449Z,8032
2016-04-14T10:10:49.437Z,8104
2016-04-14T10:11:49.439Z,8016
2016-04-14T10:12:49.442Z,8316
2016-04-14T10:13:49.444Z,9712
2016-04-14T10:14:49.462Z,9576
2016-04-14T10:15:49.464Z,9432
2016-04-14T10:16:49.483Z,9356
2016-04-14T10:17:49.470Z,9528
2016-04-14T10:18:49.473Z,9616
2016-04-14T10:19:49.508Z,9948
2016-04-14T10:20:49.525Z,10164
2016-04-14T10:21:49.466Z,10028
2016-04-14T10:22:49.483Z,10584
2016-04-14T10:23:49.486Z,10624
2016-04-14T10:24:49.489Z,10516
2016-04-14T10:25:49.507Z,10388
2016-04-14T10:26:49.479Z,10300
2016-04-14T10:27:49.496Z,10136
2016-04-14T10:28:49.484Z,10140
2016-04-14T10:29:49.502Z,10156
2016-04-14T10:30:49.537Z,10284
2016-04-14T10:31:49.368Z,10440
2016-04-14T10:32:49.542Z,10504
2016-04-14T10:33:49.513Z,9364
2016-04-14T10:34:49.516Z,9108
2016-04-14T10:35:49.378Z,9256
2016-04-14T10:36:49.554Z,9364
2016-04-14T10:37:49.540Z,9152
2016-04-14T10:38:49.559Z,9936
2016-04-14T10:39:49.546Z,11100
2016-04-14T10:40:49.595Z,10900
2016-04-14T10:41:49.567Z,9484
2016-04-14T10:42:49.569Z,9204
2016-04-14T10:43:49.572Z,9448
2016-04-14T10:44:49.589Z,10984
2016-04-14T10:45:49.593Z,10608
2016-04-14T10:46:49.564Z,9624
2016-04-14T10:47:49.567Z,9640
2016-04-14T10:48:49.601Z,9604
2016-04-14T10:49:49.588Z,10392
2016-04-14T10:50:49.966Z,9028
2016-04-14T10:51:49.593Z,8920
2016-04-14T10:52:49.596Z,8816
2016-04-14T10:53:49.613Z,8516
2016-04-14T10:54:49.616Z,8164
2016-04-14T10:55:49.619Z,7980
2016-04-14T10:56:49.607Z,9704
2016-04-14T10:57:49.625Z,9460
2016-04-14T10:58:49.627Z,9352
2016-04-14T10:59:49.630Z,7296
2016-04-14T11:00:49.617Z,7172
2016-04-14T11:01:49.635Z,8016
2016-04-14T11:02:49.638Z,7220
2016-04-14T11:03:49.657Z,7108
2016-04-14T11:04:49.675Z,6924
2016-04-14T11:05:49.991Z,6776
2016-04-14T11:06:49.665Z,6800
2016-04-14T11:07:49.668Z,7612
2016-04-14T11:08:49.670Z,6868
2016-04-14T11:09:49.673Z,6996
2016-04-14T11:10:49.691Z,7140
2016-04-14T11:11:49.678Z,7304
2016-04-14T11:12:49.681Z,7580
2016-04-14T11:13:49.667Z,7948
2016-04-14T11:14:49.687Z,8108
2016-04-14T11:15:49.704Z,8124
2016-04-14T11:16:49.707Z,8300
2016-04-14T11:17:49.709Z,8456
2016-04-14T11:18:50.291Z,8620
2016-04-14T11:19:49.731Z,8688
2016-04-14T11:20:49.702Z,8472
2016-04-14T11:21:49.720Z,8116
2016-04-14T11:22:49.722Z,7592
2016-04-14T11:23:49.741Z,7260
2016-04-14T11:24:49.713Z,6904
2016-04-14T11:25:49.716Z,6708
2016-04-14T11:26:49.750Z,6668
2016-04-14T11:27:49.783Z,6652
2016-04-14T11:28:49.724Z,6580
2016-04-14T11:29:49.741Z,6508
2016-04-14T11:30:49.744Z,6532
2016-04-14T11:31:49.763Z,6784
2016-04-14T11:32:49.750Z,8672
2016-04-14T11:33:49.738Z,8748
2016-04-14T11:34:49.754Z,8840
2016-04-14T11:35:49.836Z,8784
2016-04-14T11:36:49.745Z,8932
2016-04-14T11:37:49.887Z,9156
2016-04-14T11:38:49.687Z,9380
2016-04-14T11:39:49.783Z,9536
2016-04-14T11:40:49.770Z,9604
2016-04-14T11:41:49.773Z,10020
2016-04-14T11:42:49.776Z,10204
2016-04-14T11:43:49.779Z,10040
2016-04-14T11:44:49.813Z,9732
2016-04-14T11:45:49.800Z,9548
2016-04-14T11:46:49.786Z,9412
2016-04-14T11:47:49.805Z,9480
2016-04-14T11:48:49.667Z,9564
2016-04-14T11:49:49.873Z,9544
2016-04-14T11:50:49.802Z,8812
2016-04-14T11:51:49.821Z,7504
2016-04-14T11:52:49.824Z,7268
2016-04-14T11:53:49.826Z,7064
2016-04-14T11:54:49.845Z,6976
2016-04-14T11:55:49.832Z,7184
2016-04-14T11:56:49.850Z,7136
2016-04-14T11:57:49.837Z,7220
2016-04-14T11:58:49.839Z,8708
2016-04-14T11:59:49.858Z,8996
2016-04-14T12:00:49.845Z,9128
2016-04-14T12:01:49.864Z,9340
2016-04-14T12:02:49.851Z,8792
2016-04-14T12:03:49.869Z,10116
2016-04-14T12:04:49.872Z,9688
2016-04-14T12:05:49.842Z,8636
2016-04-14T12:06:49.861Z,8900
2016-04-14T12:07:49.864Z,9000
2016-04-14T12:08:49.710Z,8868
2016-04-14T12:09:50.338Z,8684
2016-04-14T12:10:49.887Z,8604
2016-04-14T12:11:49.891Z,8716
2016-04-14T12:12:49.893Z,8824
2016-04-14T12:13:49.896Z,8932
2016-04-14T12:14:49.898Z,8984
2016-04-14T12:15:49.901Z,8976
2016-04-14T12:16:49.904Z,8968
2016-04-14T12:17:49.907Z,9004
2016-04-14T12:18:49.910Z,9112
2016-04-14T12:19:49.912Z,9532
2016-04-14T12:20:49.961Z,10172
2016-04-14T12:21:49.932Z,10620
2016-04-14T12:22:49.951Z,10824
2016-04-14T12:23:49.923Z,11120
2016-04-14T12:24:49.940Z,10996
2016-04-14T12:25:49.959Z,10820
2016-04-14T12:26:49.946Z,10620
2016-04-14T12:27:49.948Z,10372
2016-04-14T12:28:49.968Z,10024
2016-04-14T12:29:49.954Z,9640
2016-04-14T12:30:49.957Z,9400
2016-04-14T12:31:49.959Z,9136
2016-04-14T12:32:49.962Z,8744
2016-04-14T12:33:49.965Z,8200
2016-04-14T12:34:49.983Z,7744
2016-04-14T12:35:49.970Z,7400
2016-04-14T12:36:50.003Z,7164
2016-04-14T12:37:50.006Z,7116
2016-04-14T12:38:49.994Z,7168
2016-04-14T12:39:49.981Z,7212
2016-04-14T12:40:50.000Z,7232
2016-04-14T12:41:50.033Z,7304
2016-04-14T12:42:50.036Z,7372
2016-04-14T12:43:50.007Z,7412
2016-04-14T12:44:50.010Z,7452
2016-04-14T12:45:50.044Z,7388
2016-04-14T12:46:50.016Z,7496
2016-04-14T12:47:50.034Z,8012
2016-04-14T12:48:50.021Z,7692
2016-04-14T12:49:50.039Z,7696
2016-04-14T12:50:50.010Z,7628
2016-04-14T12:51:50.060Z,7676
2016-04-14T12:52:50.046Z,7800
2016-04-14T12:53:50.049Z,7760
2016-04-14T12:54:50.052Z,7416
2016-04-14T12:55:50.055Z,6992
2016-04-14T12:56:50.043Z,6820
2016-04-14T12:57:50.046Z,6712
2016-04-14T12:58:50.063Z,6548
2016-04-14T12:59:50.051Z,6516
2016-04-14T13:00:50.068Z,6572
2016-04-14T13:01:50.087Z,6596
2016-04-14T13:02:50.073Z,6764
2016-04-14T13:03:50.076Z,7064
2016-04-14T13:04:50.095Z,7308
2016-04-14T13:05:50.113Z,7600
2016-04-14T13:06:50.101Z,7748
2016-04-14T13:07:50.087Z,7880
2016-04-14T13:08:50.090Z,8012
2016-04-14T13:09:50.127Z,8100
2016-04-14T13:10:49.973Z,8208
2016-04-14T13:11:50.143Z,8408
2016-04-14T13:12:50.146Z,8704
2016-04-14T13:13:50.133Z,8772
2016-04-14T13:14:50.120Z,8548
2016-04-14T13:15:50.154Z,8200
2016-04-14T13:16:49.984Z,8088
2016-04-14T13:17:50.112Z,8080
2016-04-14T13:18:50.130Z,8148
2016-04-14T13:19:50.133Z,8104
2016-04-14T13:20:50.136Z,8076
2016-04-14T13:21:50.154Z,7996
2016-04-14T13:22:50.158Z,7612
2016-04-14T13:23:50.144Z,7960
2016-04-14T13:24:50.178Z,7344
2016-04-14T13:25:50.166Z,6848
2016-04-14T13:26:50.184Z,6528
2016-04-14T13:27:50.546Z,6264
2016-04-14T13:28:50.205Z,5996
2016-04-14T13:29:50.191Z,5824
2016-04-14T13:30:50.179Z,5712
2016-04-14T13:31:50.181Z,5660
2016-04-14T13:32:50.200Z,5624
2016-04-14T13:33:50.218Z,5704
2016-04-14T13:34:50.205Z,5772
2016-04-14T13:35:50.193Z,5872
2016-04-14T13:36:50.226Z,5916
2016-04-14T13:37:50.245Z,5912
2016-04-14T13:38:50.215Z,5920
2016-04-14T13:39:50.250Z,5928
2016-04-14T13:40:50.221Z,5796
2016-04-14T13:41:50.240Z,5752
2016-04-14T13:42:50.149Z,5776
2016-04-14T13:43:50.714Z,5724